Time;durP1;ratioP1;P1;durP2;ratioP2;P2;SDS_P1;SDS_P2;PMS_P1;PMS_P2;Temp;Humidity;BMP_temperature;BMP_pressure;BME280_temperature;BME280_humidity;BME280_pressure;Samples;Min_cycle;Max_cycle;Signal;HPM_P1;HPM_P2
2022/09/28 00:00:32;;;;;;;1.65;0.00;;;7.50;99.90;;;;;;5073578;28;20025;-77
2022/09/28 00:02:58;;;;;;;2.65;0.10;;;7.50;99.90;;;;;;5074003;28;20107;-77
2022/09/28 00:05:27;;;;;;;1.25;0.10;;;7.50;99.90;;;;;;5072477;28;20017;-76
2022/09/28 00:07:53;;;;;;;1.15;0.00;;;7.40;99.90;;;;;;5072335;28;20016;-77
2022/09/28 00:10:21;;;;;;;1.50;0.35;;;7.40;99.90;;;;;;5072578;28;20467;-76
2022/09/28 00:12:48;;;;;;;0.45;0.00;;;7.30;99.90;;;;;;5072897;28;20491;-76
2022/09/28 00:15:14;;;;;;;2.35;0.10;;;7.30;99.90;;;;;;5073545;28;20052;-76
2022/09/28 00:17:40;;;;;;;1.38;0.00;;;7.20;99.90;;;;;;5072683;28;20048;-76
2022/09/28 00:20:05;;;;;;;2.30;0.00;;;7.30;99.90;;;;;;5073917;28;20031;-77
2022/09/28 00:22:31;;;;;;;0.20;0.00;;;7.20;99.90;;;;;;5073847;28;20021;-77
2022/09/28 00:24:57;;;;;;;4.18;0.00;;;7.20;99.90;;;;;;5073658;28;20028;-77
2022/09/28 00:27:22;;;;;;;0.20;0.05;;;7.20;99.90;;;;;;5074154;28;20485;-77
2022/09/28 00:29:48;;;;;;;6.82;0.70;;;7.20;99.90;;;;;;5073634;28;20506;-77
2022/09/28 00:32:15;;;;;;;0.93;0.10;;;7.20;99.90;;;;;;5073520;28;20017;-77
2022/09/28 00:37:19;;;;;;;1.27;0.60;;;7.20;99.90;;;;;;5072856;28;20048;-76
2022/09/28 00:39:45;;;;;;;1.27;0.00;;;7.30;99.90;;;;;;5073598;28;20035;-76
2022/09/28 00:42:22;;;;;;;1.80;0.10;;;7.30;99.90;;;;;;5055341;28;20027;-76
2022/09/28 00:44:55;;;;;;;0.22;0.00;;;7.40;99.90;;;;;;5073759;28;20020;-77
2022/09/28 00:47:38;;;;;;;2.13;0.00;;;7.40;99.90;;;;;;5073671;28;20032;-77
2022/09/28 00:50:27;;;;;;;2.90;0.30;;;7.40;99.90;;;;;;5073560;28;20024;-77
2022/09/28 00:53:00;;;;;;;;;;;7.50;99.90;;;;;;5073704;28;20394;-77
2022/09/28 00:55:49;;;;;;;1.20;0.00;;;7.50;99.90;;;;;;5055325;28;19912;-77
2022/09/28 00:58:23;;;;;;;0.82;0.00;;;7.60;99.90;;;;;;5055213;28;20025;-77
2022/09/28 01:00:49;;;;;;;0.00;0.00;;;7.60;99.90;;;;;;5073791;28;20025;-76
2022/09/28 01:03:15;;;;;;;1.90;0.08;;;9.00;99.90;;;;;;5055297;28;20017;-77
2022/09/28 01:05:42;;;;;;;0.25;0.00;;;7.60;99.90;;;;;;5073755;28;20017;-77
2022/09/28 01:08:09;;;;;;;0.85;0.00;;;7.70;99.90;;;;;;5073743;28;20375;-77
2022/09/28 01:10:35;;;;;;;0.47;0.03;;;7.70;99.90;;;;;;5073386;28;20466;-77
2022/09/28 01:13:00;;;;;;;1.55;0.00;;;7.70;99.90;;;;;;5054947;28;20013;-77
2022/09/28 01:15:28;;;;;;;2.85;0.30;;;7.70;99.90;;;;;;5073274;28;20012;-77
2022/09/28 01:18:21;;;;;;;1.13;0.00;;;7.70;99.90;;;;;;5076748;28;20017;-77
2022/09/28 01:20:59;;;;;;;2.17;0.00;;;7.70;99.90;;;;;;5058660;28;20115;-77
2022/09/28 01:23:47;;;;;;;;;;;7.70;99.90;;;;;;5058889;28;20021;-77
2022/09/28 01:26:12;;;;;;;3.03;0.00;;;7.70;99.90;;;;;;5058829;28;20263;-77
2022/09/28 01:28:42;;;;;;;1.77;0.00;;;7.70;99.90;;;;;;5058470;28;20075;-77
2022/09/28 01:31:16;;;;;;;0.95;0.00;;;7.70;99.90;;;;;;5058151;28;20021;-77
2022/09/28 01:33:47;;;;;;;1.88;0.00;;;7.60;99.90;;;;;;5076338;28;20482;-77
2022/09/28 01:36:18;;;;;;;0.20;0.00;;;7.60;99.90;;;;;;5076355;28;20082;-77
2022/09/28 01:38:51;;;;;;;1.60;0.00;;;7.50;99.90;;;;;;5076923;28;20425;-77
2022/09/28 01:41:18;;;;;;;0.57;0.00;;;7.50;99.90;;;;;;5058454;28;20120;-77
2022/09/28 01:43:53;;;;;;;0.88;0.00;;;7.40;99.90;;;;;;5059348;28;20021;-77
2022/09/28 01:46:38;;;;;;;1.23;0.00;;;7.40;99.90;;;;;;5076211;28;20100;-77
2022/09/28 01:49:30;;;;;;;1.27;0.00;;;7.30;99.90;;;;;;5076401;28;20047;-76
2022/09/28 01:52:20;;;;;;;0.43;0.10;;;7.30;99.90;;;;;;5075924;28;20024;-76
2022/09/28 01:54:57;;;;;;;0.90;0.10;;;7.20;99.90;;;;;;5076146;28;20099;-77
2022/09/28 01:57:41;;;;;;;1.52;0.20;;;7.20;99.90;;;;;;5076092;28;20051;-76
2022/09/28 02:00:10;;;;;;;1.70;0.28;;;7.20;99.90;;;;;;5076054;28;20036;-77
2022/09/28 02:02:45;;;;;;;2.58;0.20;;;7.20;99.90;;;;;;5057889;28;20021;-76
2022/09/28 02:05:18;;;;;;;0.63;0.10;;;7.20;99.90;;;;;;5075923;28;20032;-77
2022/09/28 02:07:53;;;;;;;0.70;0.10;;;7.20;99.90;;;;;;5076005;28;20021;-77
2022/09/28 02:10:24;;;;;;;2.10;0.22;;;7.20;99.90;;;;;;5057572;28;20036;-77
2022/09/28 02:13:10;;;;;;;0.35;0.10;;;7.20;99.90;;;;;;5057846;28;20048;-77
2022/09/28 02:15:50;;;;;;;0.45;0.00;;;7.10;99.90;;;;;;5058292;28;20028;-76
2022/09/28 02:18:16;;;;;;;3.83;0.17;;;7.10;99.90;;;;;;5075894;28;20087;-76
2022/09/28 02:20:46;;;;;;;1.27;0.00;;;7.10;99.90;;;;;;5057443;28;20031;-76
2022/09/28 02:23:12;;;;;;;0.43;0.00;;;7.10;99.90;;;;;;5057745;28;20024;-76
2022/09/28 02:25:50;;;;;;;0.08;0.00;;;7.10;99.90;;;;;;5075515;28;20028;-76
2022/09/28 02:28:16;;;;;;;1.35;0.00;;;7.20;99.90;;;;;;5057612;28;20475;-76
2022/09/28 02:30:43;;;;;;;0.38;0.00;;;7.10;99.90;;;;;;5074936;28;20020;-76
2022/09/28 02:33:24;;;;;;;0.80;0.00;;;7.10;99.90;;;;;;5075511;28;20017;-76
2022/09/28 02:35:50;;;;;;;1.48;0.20;;;7.20;99.90;;;;;;5075161;28;20399;-76
2022/09/28 02:38:15;;;;;;;0.85;0.00;;;7.10;99.90;;;;;;5057313;28;20022;-76
2022/09/28 02:40:48;;;;;;;0.10;0.00;;;7.10;99.90;;;;;;5075082;28;20032;-76
2022/09/28 02:43:24;;;;;;;0.00;0.00;;;7.00;99.90;;;;;;5075726;28;20043;-76
2022/09/28 02:46:19;;;;;;;1.00;0.00;;;7.00;99.90;;;;;;5057108;28;20067;-76
2022/09/28 02:49:06;;;;;;;0.00;0.00;;;7.10;99.90;;;;;;5074297;28;20040;-76
2022/09/28 02:51:48;;;;;;;1.35;0.00;;;7.00;99.90;;;;;;5056895;28;20447;-76
2022/09/28 02:54:19;;;;;;;0.22;0.00;;;7.00;99.90;;;;;;5074933;28;20025;-76
2022/09/28 02:56:50;;;;;;;0.22;0.00;;;7.00;99.90;;;;;;5074852;28;20056;-76
2022/09/28 02:59:38;;;;;;;0.30;0.00;;;7.00;99.90;;;;;;5056603;28;20032;-76
2022/09/28 03:02:25;;;;;;;0.13;0.00;;;7.00;99.90;;;;;;5056902;28;20024;-76
2022/09/28 03:05:03;;;;;;;1.30;0.00;;;7.00;99.90;;;;;;5056840;28;20035;-76
2022/09/28 03:07:31;;;;;;;2.22;0.17;;;7.00;99.90;;;;;;5074776;28;20055;-76
2022/09/28 03:10:09;;;;;;;0.10;0.00;;;6.90;99.90;;;;;;5056610;28;20070;-76
2022/09/28 03:12:37;;;;;;;0.85;0.00;;;6.90;99.90;;;;;;5056715;28;20020;-76
2022/09/28 03:15:12;;;;;;;0.38;0.17;;;6.90;99.90;;;;;;5056490;28;20025;-76
2022/09/28 03:17:38;;;;;;;0.00;0.00;;;6.90;99.90;;;;;;5074873;28;20099;-76
2022/09/28 03:20:04;;;;;;;1.30;0.00;;;6.80;99.90;;;;;;5056724;28;20059;-76
2022/09/28 03:22:30;;;;;;;1.60;0.00;;;6.80;99.90;;;;;;5073940;28;20391;-77
2022/09/28 03:24:56;;;;;;;0.40;0.00;;;6.80;99.90;;;;;;5056446;28;20016;-76
2022/09/28 03:27:21;;;;;;;0.35;0.00;;;6.70;99.90;;;;;;5056259;28;20016;-76
2022/09/28 03:29:47;;;;;;;1.45;0.00;;;6.80;99.90;;;;;;5056190;28;20037;-76
2022/09/28 03:32:12;;;;;;;1.30;0.00;;;6.70;99.90;;;;;;5056072;28;20119;-77
2022/09/28 03:34:38;;;;;;;1.58;0.00;;;6.70;99.90;;;;;;5074246;28;20025;-76
2022/09/28 03:37:03;;;;;;;1.70;0.00;;;6.80;99.90;;;;;;5074123;28;20028;-76
2022/09/28 03:39:29;;;;;;;0.57;0.00;;;6.70;99.90;;;;;;5073622;28;20032;-76
2022/09/28 03:41:55;;;;;;;0.57;0.20;;;6.80;99.90;;;;;;5074130;28;20021;-76
2022/09/28 03:44:20;;;;;;;0.30;0.00;;;6.80;99.90;;;;;;5056533;28;20395;-76
2022/09/28 03:46:46;;;;;;;0.55;0.00;;;6.80;99.90;;;;;;5056016;28;20430;-76
2022/09/28 03:49:12;;;;;;;0.00;0.00;;;6.70;99.90;;;;;;5074406;28;20433;-76
2022/09/28 03:51:37;;;;;;;0.17;0.00;;;6.70;99.90;;;;;;5074209;28;20498;-76
2022/09/28 03:54:03;;;;;;;1.65;0.32;;;6.70;99.90;;;;;;5074291;28;20051;-76
2022/09/28 03:56:29;;;;;;;0.00;0.00;;;6.70;99.90;;;;;;5056145;28;20017;-77
2022/09/28 03:58:54;;;;;;;2.20;0.20;;;6.70;99.90;;;;;;5056037;28;20036;-77
2022/09/28 04:01:20;;;;;;;1.95;0.00;;;6.60;99.90;;;;;;5055752;28;20430;-76
2022/09/28 04:03:46;;;;;;;0.00;0.00;;;6.60;99.90;;;;;;5056016;28;20574;-76
2022/09/28 04:06:13;;;;;;;1.30;0.00;;;6.60;99.90;;;;;;5074379;28;20020;-76
2022/09/28 04:08:38;;;;;;;0.95;0.05;;;6.50;99.90;;;;;;5073640;28;20028;-77
2022/09/28 04:11:04;;;;;;;2.55;0.00;;;6.50;99.90;;;;;;5074030;28;20036;-76
2022/09/28 04:13:30;;;;;;;0.00;0.00;;;6.40;99.90;;;;;;5055638;28;20025;-76
2022/09/28 04:15:59;;;;;;;3.80;0.00;;;6.40;99.90;;;;;;5073665;28;20029;-76
2022/09/28 04:18:25;;;;;;;2.22;0.08;;;6.40;99.90;;;;;;5074125;28;20103;-77
2022/09/28 04:21:09;;;;;;;0.52;0.10;;;6.30;99.90;;;;;;5055814;28;20364;-76
2022/09/28 04:23:37;;;;;;;0.00;0.00;;;6.30;99.90;;;;;;5073418;28;20063;-76
2022/09/28 04:26:05;;;;;;;0.00;0.00;;;6.30;99.90;;;;;;5073662;28;20544;-76
2022/09/28 04:31:21;;;;;;;1.45;0.00;;;6.20;99.90;;;;;;5074176;28;20130;-76
2022/09/28 04:33:47;;;;;;;0.60;0.00;;;6.20;99.90;;;;;;5073435;28;20020;-76
2022/09/28 04:36:13;;;;;;;14.23;0.00;;;6.20;99.90;;;;;;5055261;28;20135;-77
2022/09/28 04:38:39;;;;;;;8.02;0.10;;;6.20;99.90;;;;;;5073204;28;20581;-76
2022/09/28 04:41:05;;;;;;;2.60;0.00;;;6.20;99.90;;;;;;5055873;28;20502;-76
2022/09/28 04:43:32;;;;;;;0.00;0.00;;;6.20;99.90;;;;;;5073396;28;20017;-77
2022/09/28 04:45:59;;;;;;;16.45;0.00;;;6.20;99.90;;;;;;5073407;28;20457;-76
2022/09/28 04:48:25;;;;;;;0.28;0.00;;;6.20;99.90;;;;;;5073376;28;20043;-76
2022/09/28 04:50:58;;;;;;;4.85;0.00;;;6.20;99.90;;;;;;5073995;28;20035;-76
2022/09/28 04:53:26;;;;;;;0.00;0.00;;;6.20;99.90;;;;;;5077560;28;20032;-76
2022/09/28 04:55:58;;;;;;;1.17;0.45;;;6.10;99.90;;;;;;5059300;28;20020;-76
2022/09/28 04:58:25;;;;;;;0.00;0.00;;;6.10;99.90;;;;;;5058940;28;20020;-76
2022/09/28 05:00:51;;;;;;;0.38;0.00;;;6.10;99.90;;;;;;5077072;28;20020;-76
2022/09/28 05:03:17;;;;;;;0.20;0.00;;;6.20;99.90;;;;;;5076785;28;20052;-76
2022/09/28 05:05:44;;;;;;;0.20;0.00;;;6.20;99.90;;;;;;5077041;28;20109;-76
2022/09/28 05:08:09;;;;;;;0.08;0.00;;;6.20;99.90;;;;;;5058874;28;20017;-74
2022/09/28 05:10:35;;;;;;;0.10;0.00;;;6.10;99.90;;;;;;5076717;28;20024;-74
2022/09/28 05:13:01;;;;;;;0.85;0.00;;;6.10;99.90;;;;;;5076908;28;20090;-74
2022/09/28 05:15:26;;;;;;;11.32;0.00;;;6.10;99.90;;;;;;5058822;28;20543;-74
2022/09/28 05:17:52;;;;;;;2.65;0.00;;;6.10;99.90;;;;;;5076689;28;20028;-74
2022/09/28 05:20:18;;;;;;;0.20;0.00;;;6.10;99.90;;;;;;5076506;28;20020;-73
2022/09/28 05:22:43;;;;;;;1.65;0.00;;;6.10;99.90;;;;;;5058754;28;20024;-74
2022/09/28 05:25:09;;;;;;;0.00;0.00;;;6.10;99.90;;;;;;5077101;28;20060;-73
2022/09/28 05:27:34;;;;;;;0.52;0.00;;;6.10;99.90;;;;;;5076527;28;20433;-73
2022/09/28 05:30:00;;;;;;;0.43;0.00;;;6.10;99.90;;;;;;5076483;28;20071;-74
2022/09/28 05:32:25;;;;;;;0.00;0.00;;;6.10;99.90;;;;;;5076597;28;20057;-74
2022/09/28 05:34:51;;;;;;;31.85;0.40;;;6.10;99.90;;;;;;5076924;28;20383;-75
2022/09/28 05:37:16;;;;;;;3.63;0.00;;;6.00;99.90;;;;;;5058068;28;20090;-75
2022/09/28 05:39:42;;;;;;;6.03;0.00;;;6.00;99.90;;;;;;5076255;28;20021;-74
2022/09/28 05:42:07;;;;;;;0.30;0.00;;;6.00;99.90;;;;;;5058440;28;20432;-73
2022/09/28 05:44:33;;;;;;;10.77;0.22;;;6.00;99.90;;;;;;5058161;28;20051;-75
2022/09/28 05:46:59;;;;;;;9.45;0.00;;;6.00;99.90;;;;;;5058326;28;20121;-74
2022/09/28 05:49:27;;;;;;;12.43;0.30;;;6.00;99.90;;;;;;5057800;28;20021;-74
2022/09/28 05:51:53;;;;;;;0.00;0.00;;;6.00;99.90;;;;;;5058481;28;20017;-74
2022/09/28 05:54:18;;;;;;;3.72;0.00;;;6.10;99.90;;;;;;5076480;28;20074;-74
2022/09/28 05:56:44;;;;;;;0.57;0.00;;;6.10;99.90;;;;;;5076276;28;20074;-74
2022/09/28 05:59:10;;;;;;;6.63;0.00;;;6.00;99.90;;;;;;5076468;28;20541;-74
2022/09/28 06:01:36;;;;;;;1.38;0.00;;;6.00;99.90;;;;;;5057668;28;20028;-74
2022/09/28 06:04:02;;;;;;;0.98;0.00;;;6.00;99.90;;;;;;5076267;28;20071;-74
2022/09/28 06:06:27;;;;;;;2.97;0.00;;;6.00;99.90;;;;;;5058199;28;20123;-74
2022/09/28 06:08:53;;;;;;;1.88;0.00;;;6.10;99.90;;;;;;5076026;28;20020;-74
2022/09/28 06:11:24;;;;;;;0.00;0.00;;;6.10;99.90;;;;;;5075934;28;20017;-74
2022/09/28 06:13:54;;;;;;;7.38;0.10;;;6.20;99.90;;;;;;5057853;28;20028;-74
2022/09/28 06:16:19;;;;;;;0.52;0.00;;;6.30;99.90;;;;;;5057410;28;20020;-74
2022/09/28 06:18:45;;;;;;;0.63;0.00;;;6.30;99.90;;;;;;5075581;28;20035;-74
2022/09/28 06:21:12;;;;;;;2.05;0.00;;;6.40;99.90;;;;;;5057793;28;20025;-74
2022/09/28 06:23:37;;;;;;;0.25;0.03;;;6.50;99.90;;;;;;5075450;28;20032;-74
2022/09/28 06:26:03;;;;;;;1.65;0.03;;;6.60;99.90;;;;;;5076065;28;20027;-73
2022/09/28 06:28:29;;;;;;;2.20;0.10;;;6.70;99.90;;;;;;5075372;28;20071;-73
2022/09/28 06:30:54;;;;;;;1.90;0.00;;;6.80;99.90;;;;;;5075493;28;20062;-73
2022/09/28 06:33:20;;;;;;;0.45;0.00;;;7.00;99.90;;;;;;5076332;28;20036;-73
2022/09/28 06:35:46;;;;;;;0.00;0.00;;;7.10;99.90;;;;;;5075459;28;20391;-73
2022/09/28 06:38:12;;;;;;;2.15;0.00;;;7.30;99.90;;;;;;5057331;28;20017;-73
2022/09/28 06:40:38;;;;;;;1.33;0.00;;;7.40;99.90;;;;;;5075049;28;20024;-73
2022/09/28 06:43:13;;;;;;;2.40;0.00;;;7.50;99.90;;;;;;5056920;28;20482;-73
2022/09/28 06:45:40;;;;;;;0.90;0.00;;;7.60;99.90;;;;;;5057124;28;20055;-73
2022/09/28 06:48:07;;;;;;;0.10;0.00;;;7.80;99.90;;;;;;5075023;28;20031;-73
2022/09/28 06:50:41;;;;;;;1.25;0.10;;;7.80;99.90;;;;;;5056971;28;20115;-73
2022/09/28 06:53:10;;;;;;;4.00;0.00;;;8.00;99.90;;;;;;5074769;28;20017;-73
2022/09/28 06:55:44;;;;;;;0.38;0.00;;;8.10;99.90;;;;;;5074875;28;20021;-74
2022/09/28 06:58:13;;;;;;;0.10;0.10;;;8.20;99.90;;;;;;5075003;28;20020;-73
2022/09/28 07:00:40;;;;;;;0.10;0.00;;;8.30;99.90;;;;;;5074762;28;20021;-73
2022/09/28 07:03:09;;;;;;;0.70;0.00;;;8.40;99.90;;;;;;5074789;28;20016;-73
2022/09/28 07:05:40;;;;;;;0.70;0.00;;;8.50;99.90;;;;;;5074981;28;20024;-73
2022/09/28 07:08:06;;;;;;;1.70;0.00;;;8.60;99.90;;;;;;5075191;28;20071;-74
2022/09/28 07:10:32;;;;;;;0.28;0.05;;;8.80;99.90;;;;;;5074049;28;20056;-73
2022/09/28 07:13:01;;;;;;;2.10;0.20;;;8.90;99.90;;;;;;5073878;28;20024;-74
2022/09/28 07:15:28;;;;;;;3.33;0.00;;;8.90;99.90;;;;;;5055817;28;20021;-73
2022/09/28 07:18:02;;;;;;;2.13;0.00;;;9.00;99.90;;;;;;5074316;28;20430;-74
2022/09/28 07:20:28;;;;;;;1.05;0.10;;;9.10;99.90;;;;;;5055890;28;20395;-73
2022/09/28 07:22:58;;;;;;;0.70;0.10;;;9.20;99.90;;;;;;5074018;28;20020;-73
2022/09/28 07:25:24;;;;;;;0.55;0.00;;;9.30;99.90;;;;;;5073960;28;20074;-73
2022/09/28 07:27:54;;;;;;;0.13;0.00;;;9.40;99.90;;;;;;5073750;28;20047;-73
2022/09/28 07:30:20;;;;;;;2.08;0.35;;;9.50;99.90;;;;;;5055666;28;20025;-74
2022/09/28 07:32:47;;;;;;;1.75;0.00;;;9.60;99.90;;;;;;5073723;28;20020;-74
2022/09/28 07:35:12;;;;;;;1.13;0.00;;;9.70;99.90;;;;;;5055882;28;20048;-74
2022/09/28 07:37:38;;;;;;;0.65;0.28;;;9.80;99.90;;;;;;5055633;28;20028;-74
2022/09/28 07:43:04;;;;;;;0.40;0.00;;;10.00;99.90;;;;;;5050466;28;20047;-74
2022/09/28 07:45:32;;;;;;;0.52;0.00;;;10.10;99.90;;;;;;5073443;28;20391;-74
2022/09/28 07:47:58;;;;;;;3.08;0.00;;;10.20;99.90;;;;;;5055402;28;20032;-74
2022/09/28 07:50:24;;;;;;;0.98;0.00;;;10.40;99.90;;;;;;5073187;28;20089;-74
2022/09/28 07:52:49;;;;;;;2.45;0.90;;;10.40;99.90;;;;;;5055583;28;20024;-74
2022/09/28 07:55:15;;;;;;;0.68;0.05;;;10.50;99.90;;;;;;5073258;28;20031;-74
2022/09/28 07:57:40;;;;;;;1.67;0.00;;;10.70;99.90;;;;;;5073525;28;20387;-74
2022/09/28 08:00:07;;;;;;;1.08;0.00;;;10.80;99.90;;;;;;5055149;28;20025;-74
2022/09/28 08:02:34;;;;;;;1.63;0.35;;;10.90;99.90;;;;;;5073653;28;20416;-73
2022/09/28 08:05:00;;;;;;;0.50;0.28;;;11.00;99.90;;;;;;5073454;28;20383;-73
2022/09/28 08:07:26;;;;;;;2.47;0.00;;;11.10;99.90;;;;;;5073164;28;20035;-72
2022/09/28 08:09:51;;;;;;;5.20;0.20;;;11.20;99.90;;;;;;5073200;28;20029;-75
2022/09/28 08:12:18;;;;;;;1.00;0.00;;;11.20;99.90;;;;;;5073339;28;20021;-75
2022/09/28 08:14:44;;;;;;;0.52;0.10;;;11.30;99.90;;;;;;5073083;28;20514;-73
2022/09/28 08:17:10;;;;;;;4.97;0.10;;;11.40;99.90;;;;;;5073062;28;20024;-73
2022/09/28 08:22:20;;;;;;;1.27;0.00;;;11.60;99.90;;;;;;5074000;28;20043;-74
2022/09/28 08:24:47;;;;;;;0.00;0.00;;;11.70;99.90;;;;;;5073902;28;20033;-76
2022/09/28 08:27:15;;;;;;;2.22;0.57;;;11.90;99.90;;;;;;5077414;28;20451;-75
2022/09/28 08:29:42;;;;;;;1.65;0.00;;;12.00;99.90;;;;;;5077177;28;20016;-76
2022/09/28 08:32:08;;;;;;;0.38;0.00;;;11.90;99.90;;;;;;5077092;28;20032;-74
2022/09/28 08:34:38;;;;;;;0.77;0.00;;;11.90;99.90;;;;;;5077079;28;20066;-76
2022/09/28 08:37:05;;;;;;;0.30;0.00;;;12.00;99.90;;;;;;5077804;28;20467;-76
2022/09/28 08:39:33;;;;;;;0.30;0.00;;;12.10;99.90;;;;;;5076962;28;20025;-76
2022/09/28 08:42:32;;;;;;;0.63;0.25;;;12.20;99.90;;;;;;5058910;28;20033;-76
2022/09/28 08:45:06;;;;;;;2.97;0.00;;;12.30;99.90;;;;;;5077058;28;20024;-76
2022/09/28 08:51:14;;;;;;;1.63;0.00;;;12.60;99.90;;;;;;5076880;28;20047;-76
2022/09/28 08:54:00;;;;;;;0.15;0.00;;;12.70;99.90;;;;;;5077035;28;20023;-76
2022/09/28 08:56:31;;;;;;;1.40;0.00;;;12.80;99.90;;;;;;5058179;28;20032;-76
2022/09/28 08:59:03;;;;;;;0.00;0.00;;;12.80;99.90;;;;;;5077118;28;20446;-76
2022/09/28 09:01:37;;;;;;;1.35;0.00;;;12.90;99.90;;;;;;5076544;28;20471;-76
2022/09/28 09:04:05;;;;;;;0.17;0.00;;;12.90;99.90;;;;;;5058470;28;20040;-76
2022/09/28 09:06:34;;;;;;;6.60;0.00;;;13.10;99.90;;;;;;5076778;28;20099;-76
2022/09/28 09:09:20;;;;;;;0.00;0.00;;;13.20;99.90;;;;;;5058388;28;20036;-76
2022/09/28 09:11:51;;;;;;;0.82;0.00;;;13.20;99.90;;;;;;5058357;28;20078;-76
2022/09/28 09:14:26;;;;;;;0.00;0.00;;;13.20;99.90;;;;;;5058454;28;20104;-76
2022/09/28 09:17:13;;;;;;;1.42;0.00;;;13.10;99.90;;;;;;5076460;28;20020;-76
2022/09/28 09:19:53;;;;;;;0.57;0.00;;;13.00;99.90;;;;;;5058109;28;20025;-76
2022/09/28 09:22:46;;;;;;;0.20;0.00;;;12.90;99.90;;;;;;5076758;28;20027;-75
2022/09/28 09:25:49;;;;;;;0.00;0.00;;;13.20;99.90;;;;;;5076385;28;20071;-75
2022/09/28 09:28:34;;;;;;;0.73;0.13;;;13.40;99.90;;;;;;5045714;28;20029;-75
2022/09/28 09:31:11;;;;;;;0.40;0.20;;;13.60;99.90;;;;;;5058230;28;20060;-76
2022/09/28 09:33:58;;;;;;;0.52;0.00;;;13.70;99.90;;;;;;5076291;28;20022;-76
2022/09/28 09:36:43;;;;;;;0.47;0.00;;;13.90;99.90;;;;;;5057260;28;20040;-76
2022/09/28 09:39:35;;;;;;;0.43;0.00;;;13.90;99.90;;;;;;5075835;28;20368;-76
2022/09/28 09:42:00;;;;;;;0.52;0.00;;;13.80;99.90;;;;;;5075785;28;20028;-76
2022/09/28 09:44:35;;;;;;;1.00;0.00;;;13.80;99.90;;;;;;5076053;28;20095;-75
2022/09/28 09:47:14;;;;;;;0.10;0.00;;;13.60;99.90;;;;;;5075781;28;20411;-76
2022/09/28 09:50:11;;;;;;;0.30;0.00;;;13.80;99.90;;;;;;5075852;28;20085;-76
2022/09/28 09:52:53;;;;;;;0.32;0.00;;;14.00;99.90;;;;;;5045469;28;20440;-76
2022/09/28 09:55:31;;;;;;;0.00;0.00;;;14.10;99.90;;;;;;5057768;28;20027;-75
2022/09/28 09:58:10;;;;;;;0.27;0.00;;;14.20;99.90;;;;;;5057653;28;20019;-75
2022/09/28 10:00:46;;;;;;;0.25;0.00;;;14.60;99.90;;;;;;5075456;28;20359;-76
2022/09/28 10:03:18;;;;;;;1.17;0.00;;;14.70;99.90;;;;;;5057583;28;20025;-75
2022/09/28 10:05:53;;;;;;;1.10;0.00;;;14.80;99.90;;;;;;5075339;28;20098;-76
2022/09/28 10:08:22;;;;;;;0.00;0.00;;;14.90;99.90;;;;;;5075671;28;20115;-76
2022/09/28 10:10:52;;;;;;;1.27;0.00;;;15.00;99.90;;;;;;5057289;28;20024;-75
2022/09/28 10:13:18;;;;;;;1.25;0.00;;;15.00;99.90;;;;;;5075481;28;20408;-76
2022/09/28 10:15:46;;;;;;;0.00;0.00;;;15.10;99.90;;;;;;5075272;28;20067;-76
2022/09/28 10:18:14;;;;;;;0.05;0.00;;;15.20;99.90;;;;;;5075505;28;20033;-76
2022/09/28 10:20:44;;;;;;;1.55;0.00;;;15.20;99.90;;;;;;5075019;28;20024;-76
2022/09/28 10:23:26;;;;;;;1.65;0.00;;;15.30;99.90;;;;;;5075005;28;20024;-76
2022/09/28 10:25:58;;;;;;;0.88;0.03;;;15.20;99.90;;;;;;5075100;28;20446;-75
2022/09/28 10:28:55;;;;;;;1.90;0.00;;;15.60;99.90;;;;;;5075204;28;20051;-76
2022/09/28 10:31:38;;;;;;;0.43;0.25;;;15.10;99.90;;;;;;5075189;28;20021;-76
2022/09/28 10:34:05;;;;;;;0.85;0.00;;;15.00;99.90;;;;;;5074734;28;20029;-75
2022/09/28 10:36:37;;;;;;;3.40;0.28;;;14.90;99.90;;;;;;5074589;28;20491;-76
2022/09/28 10:39:04;;;;;;;0.00;0.00;;;14.90;99.90;;;;;;5075059;28;20115;-76
2022/09/28 10:41:31;;;;;;;0.32;0.00;;;15.00;99.90;;;;;;5056693;28;20032;-76
2022/09/28 10:44:05;;;;;;;0.28;0.00;;;15.20;99.90;;;;;;5074561;28;20024;-76
2022/09/28 10:46:37;;;;;;;0.00;0.00;;;15.40;99.90;;;;;;5074796;28;20468;-76
2022/09/28 10:49:14;;;;;;;1.00;0.00;;;15.40;99.90;;;;;;5073333;28;20032;-76
2022/09/28 10:51:48;;;;;;;0.10;0.00;;;15.50;99.90;;;;;;5074761;28;20103;-76
2022/09/28 10:54:27;;;;;;;0.30;0.00;;;15.40;99.90;;;;;;5075017;28;20063;-76
2022/09/28 10:56:54;;;;;;;1.35;0.10;;;15.20;99.90;;;;;;5074827;28;20408;-76
2022/09/28 10:59:28;;;;;;;0.00;0.00;;;15.20;99.90;;;;;;5074197;28;20028;-76
2022/09/28 11:02:08;;;;;;;0.35;0.00;;;15.50;99.90;;;;;;5074197;28;20038;-76
2022/09/28 11:04:40;;;;;;;0.10;0.00;;;15.70;99.90;;;;;;5074240;28;20474;-76
2022/09/28 11:07:17;;;;;;;2.65;0.32;;;16.30;99.90;;;;;;5074197;28;20020;-76
2022/09/28 11:09:47;;;;;;;0.00;0.00;;;16.50;99.90;;;;;;5073829;28;20032;-76
2022/09/28 11:12:26;;;;;;;0.00;0.00;;;16.30;99.90;;;;;;5073965;28;20025;-76
2022/09/28 11:14:59;;;;;;;0.00;0.00;;;15.80;99.90;;;;;;5074375;28;20017;-75
2022/09/28 11:17:37;;;;;;;0.10;0.00;;;15.50;99.90;;;;;;5056286;28;20025;-75
2022/09/28 11:20:24;;;;;;;1.73;0.00;;;15.10;99.90;;;;;;5074087;28;20055;-74
2022/09/28 11:22:52;;;;;;;1.25;0.00;;;14.80;99.90;;;;;;5073732;28;20262;-76
2022/09/28 11:25:17;;;;;;;0.73;0.05;;;14.50;99.90;;;;;;5073813;28;20025;-76
2022/09/28 11:27:52;;;;;;;0.00;0.00;;;14.30;99.90;;;;;;5073764;28;20028;-74
2022/09/28 11:30:47;;;;;;;0.05;0.00;;;14.10;99.90;;;;;;5073398;28;20439;-75
2022/09/28 11:33:29;;;;;;;0.00;0.00;;;14.10;99.90;;;;;;5055821;28;20104;-73
2022/09/28 11:35:59;;;;;;;3.30;0.00;;;14.10;99.90;;;;;;5073848;28;20442;-73
2022/09/28 11:38:40;;;;;;;0.10;0.00;;;14.20;99.90;;;;;;5074021;28;20040;-73
2022/09/28 11:41:17;;;;;;;0.10;0.00;;;14.10;99.90;;;;;;5074066;28;20025;-73
2022/09/28 11:43:54;;;;;;;0.75;0.00;;;14.20;99.90;;;;;;5073479;28;20533;-72
2022/09/28 11:46:53;;;;;;;0.98;0.00;;;14.30;99.90;;;;;;5073692;28;20391;-73
2022/09/28 11:49:19;;;;;;;0.22;0.00;;;14.30;99.90;;;;;;5073275;28;20107;-73
2022/09/28 11:51:47;;;;;;;0.00;0.00;;;14.50;99.90;;;;;;5073428;28;20463;-73
2022/09/28 11:54:35;;;;;;;8.48;0.00;;;14.60;99.90;;;;;;5073228;28;20103;-73
2022/09/28 11:57:03;;;;;;;0.63;0.00;;;14.80;99.90;;;;;;5073929;28;20021;-73
2022/09/28 11:59:41;;;;;;;0.55;0.00;;;14.90;99.90;;;;;;5072766;28;20029;-73
2022/09/28 12:02:19;;;;;;;0.43;0.00;;;15.10;99.90;;;;;;5073253;28;20016;-73
2022/09/28 12:04:57;;;;;;;0.20;0.00;;;15.20;99.90;;;;;;5073247;28;20029;-73
2022/09/28 12:07:37;;;;;;;0.45;0.00;;;15.20;99.90;;;;;;5073485;28;20761;-73
2022/09/28 12:10:19;;;;;;;0.10;0.00;;;15.20;99.90;;;;;;5073255;28;20052;-73
2022/09/28 12:12:50;;;;;;;0.88;0.00;;;15.30;99.90;;;;;;5073574;28;20024;-73
2022/09/28 12:15:18;;;;;;;0.17;0.00;;;15.30;99.90;;;;;;5073642;28;20012;-73
2022/09/28 12:18:07;;;;;;;1.00;0.00;;;15.30;99.90;;;;;;5073318;28;20115;-73
2022/09/28 12:20:40;;;;;;;2.40;0.00;;;15.40;99.90;;;;;;5073281;28;20032;-73
2022/09/28 12:23:11;;;;;;;1.38;0.08;;;15.40;99.90;;;;;;5072993;28;20139;-73
2022/09/28 12:25:45;;;;;;;0.45;0.00;;;15.00;99.90;;;;;;5073582;28;20459;-73
2022/09/28 12:28:19;;;;;;;0.73;0.10;;;14.70;99.90;;;;;;5073589;28;20085;-73
2022/09/28 12:30:47;;;;;;;1.08;0.00;;;14.30;99.90;;;;;;5073210;28;20479;-73
2022/09/28 12:33:16;;;;;;;0.00;0.00;;;14.10;99.90;;;;;;5073027;28;20360;-73
2022/09/28 12:36:06;;;;;;;1.45;0.00;;;13.80;99.90;;;;;;5080861;22;20055;-75
2022/09/28 12:38:50;;;;;;;1.17;0.00;;;13.60;99.90;;;;;;5073215;28;20531;-75
2022/09/28 12:41:35;;;;;;;0.00;0.00;;;13.50;99.90;;;;;;5055047;28;20029;-74
2022/09/28 12:44:16;;;;;;;1.05;0.05;;;13.40;99.90;;;;;;5072836;28;20024;-74
2022/09/28 12:46:54;;;;;;;0.00;0.00;;;13.70;99.90;;;;;;5054877;28;20032;-74
2022/09/28 12:49:43;;;;;;;1.27;0.00;;;14.30;99.90;;;;;;5072624;28;20078;-74
2022/09/28 12:52:26;;;;;;;0.00;0.00;;;15.10;99.90;;;;;;5073175;28;20108;-75
2022/09/28 12:55:00;;;;;;;0.00;0.00;;;15.80;99.90;;;;;;5072729;28;20021;-74
2022/09/28 12:57:36;;;;;;;0.00;0.00;;;15.90;99.90;;;;;;5054751;28;20025;-74
2022/09/28 13:00:14;;;;;;;0.00;0.00;;;15.80;99.90;;;;;;5054730;28;20024;-74
2022/09/28 13:03:07;;;;;;;0.00;0.00;;;15.70;99.90;;;;;;5072721;28;20116;-75
2022/09/28 13:05:55;;;;;;;0.22;0.00;;;15.80;99.90;;;;;;5054694;28;20032;-75
2022/09/28 13:08:39;;;;;;;0.00;0.00;;;16.20;99.90;;;;;;5054756;28;20037;-75
2022/09/28 13:11:40;;;;;;;0.00;0.00;;;16.50;99.90;;;;;;5072886;28;20442;-75
2022/09/28 13:14:43;;;;;;;0.00;0.00;;;16.50;99.90;;;;;;5076630;28;20416;-74
2022/09/28 13:17:42;;;;;;;1.25;0.00;;;16.30;99.90;;;;;;5076268;28;20498;-75
2022/09/28 13:20:24;;;;;;;0.03;0.00;;;16.00;99.90;;;;;;5076358;28;20028;-75
2022/09/28 13:22:55;;;;;;;0.03;0.00;;;15.60;99.90;;;;;;5076734;28;20475;-75
2022/09/28 13:25:27;;;;;;;0.08;0.00;;;15.40;99.90;;;;;;5058198;28;20479;-75
2022/09/28 13:28:01;;;;;;;0.15;0.00;;;15.10;99.90;;;;;;5076014;28;20025;-75
2022/09/28 13:30:27;;;;;;;0.88;0.10;;;14.80;99.90;;;;;;5075719;28;20070;-75
2022/09/28 13:32:56;;;;;;;0.90;0.00;;;14.60;99.90;;;;;;5076186;28;20025;-75